sensor_id;sensor_type;location;lat;lon;timestamp;pressure;altitude;pressure_sealevel;temperature
21210;BMP180;10762;42.206;25.326;2023-11-21T00:01:12;99317.00;;;11.60
21210;BMP180;10762;42.206;25.326;2023-11-21T00:03:38;99311.00;;;11.50
21210;BMP180;10762;42.206;25.326;2023-11-21T00:06:04;99313.00;;;11.50
21210;BMP180;10762;42.206;25.326;2023-11-21T00:08:30;99322.00;;;11.50
21210;BMP180;10762;42.206;25.326;2023-11-21T00:10:56;99326.00;;;11.50
21210;BMP180;10762;42.206;25.326;2023-11-21T00:13:22;99330.00;;;11.60
21210;BMP180;10762;42.206;25.326;2023-11-21T00:15:48;99342.00;;;11.60
21210;BMP180;10762;42.206;25.326;2023-11-21T00:18:15;99339.00;;;11.60
21210;BMP180;10762;42.206;25.326;2023-11-21T00:20:42;99344.00;;;11.50
21210;BMP180;10762;42.206;25.326;2023-11-21T00:23:08;99348.00;;;11.50
21210;BMP180;10762;42.206;25.326;2023-11-21T00:25:35;99335.00;;;11.40
21210;BMP180;10762;42.206;25.326;2023-11-21T00:28:02;99345.00;;;11.40
21210;BMP180;10762;42.206;25.326;2023-11-21T00:30:29;99349.00;;;11.30
21210;BMP180;10762;42.206;25.326;2023-11-21T00:32:56;99344.00;;;11.30
21210;BMP180;10762;42.206;25.326;2023-11-21T00:35:22;99353.00;;;11.20
21210;BMP180;10762;42.206;25.326;2023-11-21T00:37:48;99357.00;;;11.10
21210;BMP180;10762;42.206;25.326;2023-11-21T00:40:15;99354.00;;;11.10
21210;BMP180;10762;42.206;25.326;2023-11-21T00:42:41;99346.00;;;11.00
21210;BMP180;10762;42.206;25.326;2023-11-21T00:45:08;99349.00;;;11.00
21210;BMP180;10762;42.206;25.326;2023-11-21T00:47:34;99338.00;;;10.90
21210;BMP180;10762;42.206;25.326;2023-11-21T00:50:00;99342.00;;;10.90
21210;BMP180;10762;42.206;25.326;2023-11-21T00:52:26;99341.00;;;11.00
21210;BMP180;10762;42.206;25.326;2023-11-21T00:54:52;99343.00;;;11.10
21210;BMP180;10762;42.206;25.326;2023-11-21T00:57:19;99337.00;;;11.10
21210;BMP180;10762;42.206;25.326;2023-11-21T00:59:45;99330.00;;;11.10
21210;BMP180;10762;42.206;25.326;2023-11-21T01:02:11;99327.00;;;11.10
21210;BMP180;10762;42.206;25.326;2023-11-21T01:04:37;99328.00;;;11.10
21210;BMP180;10762;42.206;25.326;2023-11-21T01:07:03;99328.00;;;11.10
21210;BMP180;10762;42.206;25.326;2023-11-21T01:09:31;99331.00;;;11.10
21210;BMP180;10762;42.206;25.326;2023-11-21T01:11:57;99329.00;;;11.10
21210;BMP180;10762;42.206;25.326;2023-11-21T01:14:25;99336.00;;;11.00
21210;BMP180;10762;42.206;25.326;2023-11-21T01:16:53;99337.00;;;10.90
21210;BMP180;10762;42.206;25.326;2023-11-21T01:19:19;99345.00;;;10.90
21210;BMP180;10762;42.206;25.326;2023-11-21T01:21:45;99338.00;;;10.80
21210;BMP180;10762;42.206;25.326;2023-11-21T01:24:11;99335.00;;;10.80
21210;BMP180;10762;42.206;25.326;2023-11-21T01:26:37;99334.00;;;10.70
21210;BMP180;10762;42.206;25.326;2023-11-21T01:29:03;99338.00;;;10.70
21210;BMP180;10762;42.206;25.326;2023-11-21T01:31:30;99337.00;;;10.70
21210;BMP180;10762;42.206;25.326;2023-11-21T01:33:57;99336.00;;;10.80
21210;BMP180;10762;42.206;25.326;2023-11-21T01:36:23;99339.00;;;10.80
21210;BMP180;10762;42.206;25.326;2023-11-21T01:38:55;99337.00;;;10.90
21210;BMP180;10762;42.206;25.326;2023-11-21T01:41:28;99335.00;;;10.90
21210;BMP180;10762;42.206;25.326;2023-11-21T01:43:54;99333.00;;;10.90
21210;BMP180;10762;42.206;25.326;2023-11-21T01:46:20;99318.00;;;10.90
21210;BMP180;10762;42.206;25.326;2023-11-21T01:48:48;99323.00;;;10.90
21210;BMP180;10762;42.206;25.326;2023-11-21T01:51:14;99317.00;;;10.90
21210;BMP180;10762;42.206;25.326;2023-11-21T01:53:40;99317.00;;;10.90
21210;BMP180;10762;42.206;25.326;2023-11-21T01:56:07;99318.00;;;10.90
21210;BMP180;10762;42.206;25.326;2023-11-21T01:58:34;99321.00;;;10.90
21210;BMP180;10762;42.206;25.326;2023-11-21T02:01:00;99317.00;;;10.90
21210;BMP180;10762;42.206;25.326;2023-11-21T02:03:26;99317.00;;;10.80
21210;BMP180;10762;42.206;25.326;2023-11-21T02:05:53;99319.00;;;10.80
21210;BMP180;10762;42.206;25.326;2023-11-21T02:08:20;99326.00;;;10.80
21210;BMP180;10762;42.206;25.326;2023-11-21T02:10:46;99322.00;;;10.70
21210;BMP180;10762;42.206;25.326;2023-11-21T02:13:13;99314.00;;;10.70
21210;BMP180;10762;42.206;25.326;2023-11-21T02:15:39;99320.00;;;10.60
21210;BMP180;10762;42.206;25.326;2023-11-21T02:18:05;99316.00;;;10.60
21210;BMP180;10762;42.206;25.326;2023-11-21T02:20:32;99315.00;;;10.50
21210;BMP180;10762;42.206;25.326;2023-11-21T02:23:00;99313.00;;;10.40
21210;BMP180;10762;42.206;25.326;2023-11-21T02:25:30;99313.00;;;10.40
21210;BMP180;10762;42.206;25.326;2023-11-21T02:27:58;99316.00;;;10.30
21210;BMP180;10762;42.206;25.326;2023-11-21T02:30:24;99318.00;;;10.30
21210;BMP180;10762;42.206;25.326;2023-11-21T02:33:00;99315.00;;;10.20
21210;BMP180;10762;42.206;25.326;2023-11-21T02:35:26;99309.00;;;10.20
21210;BMP180;10762;42.206;25.326;2023-11-21T02:37:53;99314.00;;;10.20
21210;BMP180;10762;42.206;25.326;2023-11-21T02:40:19;99307.00;;;10.20
21210;BMP180;10762;42.206;25.326;2023-11-21T02:42:50;99310.00;;;10.20
21210;BMP180;10762;42.206;25.326;2023-11-21T02:45:20;99322.00;;;10.20
21210;BMP180;10762;42.206;25.326;2023-11-21T02:47:50;99317.00;;;10.20
21210;BMP180;10762;42.206;25.326;2023-11-21T02:50:16;99304.00;;;10.20
21210;BMP180;10762;42.206;25.326;2023-11-21T02:52:44;99307.00;;;10.20
21210;BMP180;10762;42.206;25.326;2023-11-21T02:55:11;99300.00;;;10.20
21210;BMP180;10762;42.206;25.326;2023-11-21T02:57:37;99307.00;;;10.20
21210;BMP180;10762;42.206;25.326;2023-11-21T03:00:03;99307.00;;;10.20
21210;BMP180;10762;42.206;25.326;2023-11-21T03:02:29;99315.00;;;10.30
21210;BMP180;10762;42.206;25.326;2023-11-21T03:04:55;99312.00;;;10.30
21210;BMP180;10762;42.206;25.326;2023-11-21T03:07:21;99316.00;;;10.40
21210;BMP180;10762;42.206;25.326;2023-11-21T03:09:47;99315.00;;;10.40
21210;BMP180;10762;42.206;25.326;2023-11-21T03:12:13;99311.00;;;10.40
21210;BMP180;10762;42.206;25.326;2023-11-21T03:14:40;99316.00;;;10.50
21210;BMP180;10762;42.206;25.326;2023-11-21T03:17:06;99318.00;;;10.50
21210;BMP180;10762;42.206;25.326;2023-11-21T03:19:32;99321.00;;;10.60
21210;BMP180;10762;42.206;25.326;2023-11-21T03:21:58;99325.00;;;10.60
21210;BMP180;10762;42.206;25.326;2023-11-21T03:24:24;99321.00;;;10.70
21210;BMP180;10762;42.206;25.326;2023-11-21T03:26:52;99325.00;;;10.60
21210;BMP180;10762;42.206;25.326;2023-11-21T03:29:18;99322.00;;;10.60
21210;BMP180;10762;42.206;25.326;2023-11-21T03:31:44;99313.00;;;10.70
21210;BMP180;10762;42.206;25.326;2023-11-21T03:34:15;99313.00;;;10.80
21210;BMP180;10762;42.206;25.326;2023-11-21T03:36:41;99306.00;;;10.90
21210;BMP180;10762;42.206;25.326;2023-11-21T03:39:07;99297.00;;;11.00
21210;BMP180;10762;42.206;25.326;2023-11-21T03:41:33;99297.00;;;11.10
21210;BMP180;10762;42.206;25.326;2023-11-21T03:43:59;99295.00;;;11.20
21210;BMP180;10762;42.206;25.326;2023-11-21T03:46:26;99290.00;;;11.30
21210;BMP180;10762;42.206;25.326;2023-11-21T03:48:52;99289.00;;;11.40
21210;BMP180;10762;42.206;25.326;2023-11-21T03:51:18;99289.00;;;11.40
21210;BMP180;10762;42.206;25.326;2023-11-21T03:53:45;99282.00;;;11.50
21210;BMP180;10762;42.206;25.326;2023-11-21T03:56:11;99284.00;;;11.70
21210;BMP180;10762;42.206;25.326;2023-11-21T03:58:37;99286.00;;;11.80
21210;BMP180;10762;42.206;25.326;2023-11-21T04:01:03;99294.00;;;11.90
21210;BMP180;10762;42.206;25.326;2023-11-21T04:03:29;99288.00;;;12.00
21210;BMP180;10762;42.206;25.326;2023-11-21T04:05:55;99296.00;;;12.00
21210;BMP180;10762;42.206;25.326;2023-11-21T04:08:21;99289.00;;;12.00
21210;BMP180;10762;42.206;25.326;2023-11-21T04:10:47;99297.00;;;12.00
21210;BMP180;10762;42.206;25.326;2023-11-21T04:13:14;99299.00;;;12.00
21210;BMP180;10762;42.206;25.326;2023-11-21T04:15:40;99291.00;;;12.10
21210;BMP180;10762;42.206;25.326;2023-11-21T04:18:06;99306.00;;;12.10
21210;BMP180;10762;42.206;25.326;2023-11-21T04:20:32;99297.00;;;12.10
21210;BMP180;10762;42.206;25.326;2023-11-21T04:22:58;99300.00;;;12.10
21210;BMP180;10762;42.206;25.326;2023-11-21T04:25:24;99297.00;;;12.10
21210;BMP180;10762;42.206;25.326;2023-11-21T04:27:51;99307.00;;;12.00
21210;BMP180;10762;42.206;25.326;2023-11-21T04:30:17;99312.00;;;12.00
21210;BMP180;10762;42.206;25.326;2023-11-21T04:32:43;99316.00;;;12.00
21210;BMP180;10762;42.206;25.326;2023-11-21T04:35:09;99300.00;;;12.00
21210;BMP180;10762;42.206;25.326;2023-11-21T04:37:35;99315.00;;;12.00
21210;BMP180;10762;42.206;25.326;2023-11-21T04:40:01;99317.00;;;11.90
21210;BMP180;10762;42.206;25.326;2023-11-21T04:42:32;99316.00;;;11.80
21210;BMP180;10762;42.206;25.326;2023-11-21T04:44:58;99323.00;;;11.70
21210;BMP180;10762;42.206;25.326;2023-11-21T04:47:24;99323.00;;;11.60
21210;BMP180;10762;42.206;25.326;2023-11-21T04:49:50;99324.00;;;11.60
21210;BMP180;10762;42.206;25.326;2023-11-21T04:52:16;99330.00;;;11.60
21210;BMP180;10762;42.206;25.326;2023-11-21T04:54:42;99326.00;;;11.60
21210;BMP180;10762;42.206;25.326;2023-11-21T04:57:08;99333.00;;;11.50
21210;BMP180;10762;42.206;25.326;2023-11-21T04:59:35;99335.00;;;11.50
21210;BMP180;10762;42.206;25.326;2023-11-21T05:02:01;99329.00;;;11.50
21210;BMP180;10762;42.206;25.326;2023-11-21T05:04:28;99330.00;;;11.50
21210;BMP180;10762;42.206;25.326;2023-11-21T05:06:54;99338.00;;;11.50
21210;BMP180;10762;42.206;25.326;2023-11-21T05:09:21;99338.00;;;11.40
21210;BMP180;10762;42.206;25.326;2023-11-21T05:11:48;99332.00;;;11.40
21210;BMP180;10762;42.206;25.326;2023-11-21T05:14:14;99338.00;;;11.30
21210;BMP180;10762;42.206;25.326;2023-11-21T05:16:40;99350.00;;;11.30
21210;BMP180;10762;42.206;25.326;2023-11-21T05:19:06;99350.00;;;11.20
21210;BMP180;10762;42.206;25.326;2023-11-21T05:21:32;99349.00;;;11.20
21210;BMP180;10762;42.206;25.326;2023-11-21T05:23:58;99349.00;;;11.10
21210;BMP180;10762;42.206;25.326;2023-11-21T05:26:25;99354.00;;;11.10
21210;BMP180;10762;42.206;25.326;2023-11-21T05:28:51;99358.00;;;11.10
21210;BMP180;10762;42.206;25.326;2023-11-21T05:31:17;99353.00;;;11.00
21210;BMP180;10762;42.206;25.326;2023-11-21T05:33:44;99359.00;;;11.00
21210;BMP180;10762;42.206;25.326;2023-11-21T05:36:10;99358.00;;;11.10
21210;BMP180;10762;42.206;25.326;2023-11-21T05:38:36;99374.00;;;11.10
21210;BMP180;10762;42.206;25.326;2023-11-21T05:41:02;99354.00;;;11.10
21210;BMP180;10762;42.206;25.326;2023-11-21T05:43:30;99356.00;;;11.20
21210;BMP180;10762;42.206;25.326;2023-11-21T05:45:56;99349.00;;;11.20
21210;BMP180;10762;42.206;25.326;2023-11-21T05:48:22;99351.00;;;11.30
21210;BMP180;10762;42.206;25.326;2023-11-21T05:50:49;99340.00;;;11.30
21210;BMP180;10762;42.206;25.326;2023-11-21T05:53:15;99352.00;;;11.40
21210;BMP180;10762;42.206;25.326;2023-11-21T05:55:42;99346.00;;;11.40
21210;BMP180;10762;42.206;25.326;2023-11-21T05:58:08;99348.00;;;11.50
21210;BMP180;10762;42.206;25.326;2023-11-21T06:00:34;99351.00;;;11.50
21210;BMP180;10762;42.206;25.326;2023-11-21T06:03:00;99347.00;;;11.50
21210;BMP180;10762;42.206;25.326;2023-11-21T06:05:27;99354.00;;;11.50
21210;BMP180;10762;42.206;25.326;2023-11-21T06:07:53;99357.00;;;11.50
21210;BMP180;10762;42.206;25.326;2023-11-21T06:10:21;99350.00;;;11.40
21210;BMP180;10762;42.206;25.326;2023-11-21T06:12:47;99349.00;;;11.40
21210;BMP180;10762;42.206;25.326;2023-11-21T06:15:14;99352.00;;;11.40
21210;BMP180;10762;42.206;25.326;2023-11-21T06:17:40;99352.00;;;11.40
21210;BMP180;10762;42.206;25.326;2023-11-21T06:20:08;99364.00;;;11.40
21210;BMP180;10762;42.206;25.326;2023-11-21T06:22:36;99361.00;;;11.40
21210;BMP180;10762;42.206;25.326;2023-11-21T06:25:02;99358.00;;;11.40
21210;BMP180;10762;42.206;25.326;2023-11-21T06:27:34;99360.00;;;11.50
21210;BMP180;10762;42.206;25.326;2023-11-21T06:30:02;99370.00;;;11.50
21210;BMP180;10762;42.206;25.326;2023-11-21T06:32:28;99368.00;;;11.50
21210;BMP180;10762;42.206;25.326;2023-11-21T06:34:55;99369.00;;;11.60
21210;BMP180;10762;42.206;25.326;2023-11-21T06:37:21;99367.00;;;11.80
21210;BMP180;10762;42.206;25.326;2023-11-21T06:39:49;99367.00;;;12.00
21210;BMP180;10762;42.206;25.326;2023-11-21T06:42:18;99364.00;;;12.00
21210;BMP180;10762;42.206;25.326;2023-11-21T06:44:45;99365.00;;;12.00
21210;BMP180;10762;42.206;25.326;2023-11-21T06:47:11;99359.00;;;12.00
21210;BMP180;10762;42.206;25.326;2023-11-21T06:49:37;99377.00;;;12.10
21210;BMP180;10762;42.206;25.326;2023-11-21T06:52:04;99379.00;;;12.30
21210;BMP180;10762;42.206;25.326;2023-11-21T06:54:31;99375.00;;;12.50
21210;BMP180;10762;42.206;25.326;2023-11-21T06:56:58;99380.00;;;12.70
21210;BMP180;10762;42.206;25.326;2023-11-21T06:59:24;99381.00;;;12.90
21210;BMP180;10762;42.206;25.326;2023-11-21T07:01:50;99379.00;;;13.00
21210;BMP180;10762;42.206;25.326;2023-11-21T07:04:16;99372.00;;;13.10
21210;BMP180;10762;42.206;25.326;2023-11-21T07:06:44;99361.00;;;13.30
21210;BMP180;10762;42.206;25.326;2023-11-21T07:09:10;99356.00;;;13.50
21210;BMP180;10762;42.206;25.326;2023-11-21T07:11:37;99366.00;;;13.70
21210;BMP180;10762;42.206;25.326;2023-11-21T07:14:04;99366.00;;;13.80
21210;BMP180;10762;42.206;25.326;2023-11-21T07:16:34;99356.00;;;14.00
21210;BMP180;10762;42.206;25.326;2023-11-21T07:19:00;99346.00;;;14.20
21210;BMP180;10762;42.206;25.326;2023-11-21T07:21:26;99340.00;;;14.40
21210;BMP180;10762;42.206;25.326;2023-11-21T07:23:52;99326.00;;;14.60
21210;BMP180;10762;42.206;25.326;2023-11-21T07:26:19;99325.00;;;14.80
21210;BMP180;10762;42.206;25.326;2023-11-21T07:28:45;99338.00;;;15.00
21210;BMP180;10762;42.206;25.326;2023-11-21T07:31:11;99336.00;;;15.20
21210;BMP180;10762;42.206;25.326;2023-11-21T07:33:38;99336.00;;;15.40
21210;BMP180;10762;42.206;25.326;2023-11-21T07:36:04;99338.00;;;15.50
21210;BMP180;10762;42.206;25.326;2023-11-21T07:38:30;99337.00;;;15.60
21210;BMP180;10762;42.206;25.326;2023-11-21T07:40:56;99341.00;;;15.80
21210;BMP180;10762;42.206;25.326;2023-11-21T07:43:22;99342.00;;;15.90
21210;BMP180;10762;42.206;25.326;2023-11-21T07:45:48;99343.00;;;16.00
21210;BMP180;10762;42.206;25.326;2023-11-21T07:48:15;99349.00;;;16.20
21210;BMP180;10762;42.206;25.326;2023-11-21T07:50:41;99338.00;;;16.30
21210;BMP180;10762;42.206;25.326;2023-11-21T07:53:07;99342.00;;;16.40
21210;BMP180;10762;42.206;25.326;2023-11-21T07:55:33;99336.00;;;16.50
21210;BMP180;10762;42.206;25.326;2023-11-21T07:57:59;99337.00;;;16.70
21210;BMP180;10762;42.206;25.326;2023-11-21T08:00:25;99338.00;;;16.80
21210;BMP180;10762;42.206;25.326;2023-11-21T08:02:55;99334.00;;;17.00
21210;BMP180;10762;42.206;25.326;2023-11-21T08:05:22;99335.00;;;17.10
21210;BMP180;10762;42.206;25.326;2023-11-21T08:07:48;99329.00;;;17.20
21210;BMP180;10762;42.206;25.326;2023-11-21T08:10:14;99327.00;;;17.20
21210;BMP180;10762;42.206;25.326;2023-11-21T08:12:40;99329.00;;;17.30
21210;BMP180;10762;42.206;25.326;2023-11-21T08:15:08;99327.00;;;17.30
21210;BMP180;10762;42.206;25.326;2023-11-21T08:17:35;99323.00;;;17.50
21210;BMP180;10762;42.206;25.326;2023-11-21T08:20:01;99333.00;;;17.60
21210;BMP180;10762;42.206;25.326;2023-11-21T08:22:28;99331.00;;;17.70
21210;BMP180;10762;42.206;25.326;2023-11-21T08:24:55;99336.00;;;17.80
21210;BMP180;10762;42.206;25.326;2023-11-21T08:27:22;99343.00;;;17.90
21210;BMP180;10762;42.206;25.326;2023-11-21T08:29:48;99340.00;;;18.00
21210;BMP180;10762;42.206;25.326;2023-11-21T08:32:14;99340.00;;;18.10
21210;BMP180;10762;42.206;25.326;2023-11-21T08:34:40;99339.00;;;18.20
21210;BMP180;10762;42.206;25.326;2023-11-21T08:37:08;99333.00;;;18.30
21210;BMP180;10762;42.206;25.326;2023-11-21T08:39:36;99330.00;;;18.40
21210;BMP180;10762;42.206;25.326;2023-11-21T08:42:03;99318.00;;;18.40
21210;BMP180;10762;42.206;25.326;2023-11-21T08:44:29;99319.00;;;18.40
21210;BMP180;10762;42.206;25.326;2023-11-21T08:46:56;99320.00;;;18.50
21210;BMP180;10762;42.206;25.326;2023-11-21T08:49:22;99326.00;;;18.70
21210;BMP180;10762;42.206;25.326;2023-11-21T08:51:48;99317.00;;;18.70
21210;BMP180;10762;42.206;25.326;2023-11-21T08:54:15;99315.00;;;18.80
21210;BMP180;10762;42.206;25.326;2023-11-21T08:56:42;99313.00;;;18.80
21210;BMP180;10762;42.206;25.326;2023-11-21T08:59:09;99314.00;;;18.70
21210;BMP180;10762;42.206;25.326;2023-11-21T09:01:35;99311.00;;;18.60
21210;BMP180;10762;42.206;25.326;2023-11-21T09:04:01;99297.00;;;18.60
21210;BMP180;10762;42.206;25.326;2023-11-21T09:06:28;99296.00;;;18.60
21210;BMP180;10762;42.206;25.326;2023-11-21T09:08:54;99285.00;;;18.60
21210;BMP180;10762;42.206;25.326;2023-11-21T09:11:20;99283.00;;;18.70
21210;BMP180;10762;42.206;25.326;2023-11-21T09:13:46;99278.00;;;18.90
21210;BMP180;10762;42.206;25.326;2023-11-21T09:16:13;99285.00;;;18.90
21210;BMP180;10762;42.206;25.326;2023-11-21T09:18:39;99277.00;;;19.00
21210;BMP180;10762;42.206;25.326;2023-11-21T09:21:06;99277.00;;;19.10
21210;BMP180;10762;42.206;25.326;2023-11-21T09:23:32;99278.00;;;19.20
21210;BMP180;10762;42.206;25.326;2023-11-21T09:25:58;99267.00;;;19.30
21210;BMP180;10762;42.206;25.326;2023-11-21T09:28:27;99266.00;;;19.40
21210;BMP180;10762;42.206;25.326;2023-11-21T09:30:53;99268.00;;;19.40
21210;BMP180;10762;42.206;25.326;2023-11-21T09:33:19;99262.00;;;19.40
21210;BMP180;10762;42.206;25.326;2023-11-21T09:35:46;99260.00;;;19.40
21210;BMP180;10762;42.206;25.326;2023-11-21T09:38:13;99253.00;;;19.50
21210;BMP180;10762;42.206;25.326;2023-11-21T09:40:39;99249.00;;;19.50
21210;BMP180;10762;42.206;25.326;2023-11-21T09:43:06;99251.00;;;19.50
21210;BMP180;10762;42.206;25.326;2023-11-21T09:45:36;99254.00;;;19.60
21210;BMP180;10762;42.206;25.326;2023-11-21T09:48:04;99258.00;;;19.70
21210;BMP180;10762;42.206;25.326;2023-11-21T09:50:32;99238.00;;;19.70
21210;BMP180;10762;42.206;25.326;2023-11-21T09:55:39;99231.00;;;19.70
21210;BMP180;10762;42.206;25.326;2023-11-21T09:58:06;99228.00;;;19.70
21210;BMP180;10762;42.206;25.326;2023-11-21T10:00:33;99233.00;;;19.70
21210;BMP180;10762;42.206;25.326;2023-11-21T10:03:00;99221.00;;;19.60
21210;BMP180;10762;42.206;25.326;2023-11-21T10:05:26;99220.00;;;19.60
21210;BMP180;10762;42.206;25.326;2023-11-21T10:07:52;99217.00;;;19.60
21210;BMP180;10762;42.206;25.326;2023-11-21T10:10:19;99220.00;;;19.70
21210;BMP180;10762;42.206;25.326;2023-11-21T10:12:47;99215.00;;;19.60
21210;BMP180;10762;42.206;25.326;2023-11-21T10:15:14;99215.00;;;19.60
21210;BMP180;10762;42.206;25.326;2023-11-21T10:17:42;99207.00;;;19.70
21210;BMP180;10762;42.206;25.326;2023-11-21T10:20:11;99212.00;;;19.80
21210;BMP180;10762;42.206;25.326;2023-11-21T10:22:42;99198.00;;;19.90
21210;BMP180;10762;42.206;25.326;2023-11-21T10:25:09;99195.00;;;20.00
21210;BMP180;10762;42.206;25.326;2023-11-21T10:27:38;99192.00;;;20.10
21210;BMP180;10762;42.206;25.326;2023-11-21T10:30:05;99189.00;;;20.10
21210;BMP180;10762;42.206;25.326;2023-11-21T10:32:31;99179.00;;;20.10
21210;BMP180;10762;42.206;25.326;2023-11-21T10:34:59;99176.00;;;20.10
21210;BMP180;10762;42.206;25.326;2023-11-21T10:37:32;99168.00;;;20.20
21210;BMP180;10762;42.206;25.326;2023-11-21T10:39:59;99165.00;;;20.30
21210;BMP180;10762;42.206;25.326;2023-11-21T10:42:25;99167.00;;;20.40
21210;BMP180;10762;42.206;25.326;2023-11-21T10:44:53;99156.00;;;20.50
21210;BMP180;10762;42.206;25.326;2023-11-21T10:47:19;99155.00;;;20.60
21210;BMP180;10762;42.206;25.326;2023-11-21T10:49:48;99157.00;;;20.80
21210;BMP180;10762;42.206;25.326;2023-11-21T10:52:14;99150.00;;;20.80
21210;BMP180;10762;42.206;25.326;2023-11-21T10:54:43;99147.00;;;20.90
21210;BMP180;10762;42.206;25.326;2023-11-21T10:57:10;99147.00;;;20.90
21210;BMP180;10762;42.206;25.326;2023-11-21T10:59:36;99144.00;;;20.90
21210;BMP180;10762;42.206;25.326;2023-11-21T11:02:36;99139.00;;;20.90
21210;BMP180;10762;42.206;25.326;2023-11-21T11:04:57;99148.00;;;20.70
21210;BMP180;10762;42.206;25.326;2023-11-21T11:07:25;99138.00;;;20.70
21210;BMP180;10762;42.206;25.326;2023-11-21T11:09:53;99136.00;;;20.60
21210;BMP180;10762;42.206;25.326;2023-11-21T11:12:19;99125.00;;;20.60
21210;BMP180;10762;42.206;25.326;2023-11-21T11:14:45;99125.00;;;20.60
21210;BMP180;10762;42.206;25.326;2023-11-21T11:17:13;99121.00;;;20.60
21210;BMP180;10762;42.206;25.326;2023-11-21T11:19:39;99122.00;;;20.70
21210;BMP180;10762;42.206;25.326;2023-11-21T11:24:51;99122.00;;;20.70
21210;BMP180;10762;42.206;25.326;2023-11-21T11:37:43;99098.00;;;20.60
21210;BMP180;10762;42.206;25.326;2023-11-21T11:40:11;99101.00;;;20.60
21210;BMP180;10762;42.206;25.326;2023-11-21T11:42:37;99101.00;;;20.60
21210;BMP180;10762;42.206;25.326;2023-11-21T11:45:17;99090.00;;;20.60
21210;BMP180;10762;42.206;25.326;2023-11-21T11:47:43;99096.00;;;20.60
21210;BMP180;10762;42.206;25.326;2023-11-21T11:50:11;99099.00;;;20.60
21210;BMP180;10762;42.206;25.326;2023-11-21T11:52:46;99089.00;;;20.70
21210;BMP180;10762;42.206;25.326;2023-11-21T11:55:13;99082.00;;;20.70
21210;BMP180;10762;42.206;25.326;2023-11-21T11:57:40;99070.00;;;20.80
21210;BMP180;10762;42.206;25.326;2023-11-21T12:00:16;99059.00;;;20.80
21210;BMP180;10762;42.206;25.326;2023-11-21T12:02:49;99063.00;;;20.80
21210;BMP180;10762;42.206;25.326;2023-11-21T12:05:16;99064.00;;;20.80
21210;BMP180;10762;42.206;25.326;2023-11-21T12:10:12;99042.00;;;20.70
21210;BMP180;10762;42.206;25.326;2023-11-21T12:12:46;99040.00;;;20.80
21210;BMP180;10762;42.206;25.326;2023-11-21T12:15:13;99036.00;;;20.80
21210;BMP180;10762;42.206;25.326;2023-11-21T12:17:41;99029.00;;;20.70
21210;BMP180;10762;42.206;25.326;2023-11-21T12:20:07;99026.00;;;20.70
21210;BMP180;10762;42.206;25.326;2023-11-21T12:22:47;99022.00;;;20.60
21210;BMP180;10762;42.206;25.326;2023-11-21T12:25:16;99021.00;;;20.60
21210;BMP180;10762;42.206;25.326;2023-11-21T12:27:47;99015.00;;;20.60
21210;BMP180;10762;42.206;25.326;2023-11-21T12:30:15;99009.00;;;20.60
21210;BMP180;10762;42.206;25.326;2023-11-21T12:32:43;99006.00;;;20.60
21210;BMP180;10762;42.206;25.326;2023-11-21T12:35:09;99006.00;;;20.60
21210;BMP180;10762;42.206;25.326;2023-11-21T12:37:37;99005.00;;;20.50
21210;BMP180;10762;42.206;25.326;2023-11-21T12:40:07;99005.00;;;20.50
21210;BMP180;10762;42.206;25.326;2023-11-21T12:42:34;99015.00;;;20.40
21210;BMP180;10762;42.206;25.326;2023-11-21T12:45:12;99017.00;;;20.40
21210;BMP180;10762;42.206;25.326;2023-11-21T12:47:44;99013.00;;;20.40
21210;BMP180;10762;42.206;25.326;2023-11-21T12:50:11;99010.00;;;20.30
21210;BMP180;10762;42.206;25.326;2023-11-21T12:52:43;99006.00;;;20.30
21210;BMP180;10762;42.206;25.326;2023-11-21T12:55:16;99011.00;;;20.20
21210;BMP180;10762;42.206;25.326;2023-11-21T12:57:43;99004.00;;;20.20
21210;BMP180;10762;42.206;25.326;2023-11-21T13:00:10;98996.00;;;20.20
21210;BMP180;10762;42.206;25.326;2023-11-21T13:02:42;98991.00;;;20.20
21210;BMP180;10762;42.206;25.326;2023-11-21T13:05:09;98994.00;;;20.20
21210;BMP180;10762;42.206;25.326;2023-11-21T13:07:48;98988.00;;;20.20
21210;BMP180;10762;42.206;25.326;2023-11-21T13:10:15;98985.00;;;20.10
21210;BMP180;10762;42.206;25.326;2023-11-21T13:12:45;98986.00;;;20.20
21210;BMP180;10762;42.206;25.326;2023-11-21T13:15:14;98989.00;;;20.20
21210;BMP180;10762;42.206;25.326;2023-11-21T13:17:46;98990.00;;;20.20
21210;BMP180;10762;42.206;25.326;2023-11-21T13:20:12;98982.00;;;20.10
21210;BMP180;10762;42.206;25.326;2023-11-21T13:22:46;98974.00;;;20.10
21210;BMP180;10762;42.206;25.326;2023-11-21T13:25:17;98979.00;;;20.00
21210;BMP180;10762;42.206;25.326;2023-11-21T13:27:46;98973.00;;;20.00
21210;BMP180;10762;42.206;25.326;2023-11-21T13:30:13;98960.00;;;19.90
21210;BMP180;10762;42.206;25.326;2023-11-21T13:32:43;98952.00;;;19.90
21210;BMP180;10762;42.206;25.326;2023-11-21T13:35:10;98950.00;;;19.90
21210;BMP180;10762;42.206;25.326;2023-11-21T13:37:50;98946.00;;;19.90
21210;BMP180;10762;42.206;25.326;2023-11-21T13:40:21;98946.00;;;19.90
21210;BMP180;10762;42.206;25.326;2023-11-21T13:42:54;98947.00;;;19.80
21210;BMP180;10762;42.206;25.326;2023-11-21T13:45:21;98944.00;;;19.80
21210;BMP180;10762;42.206;25.326;2023-11-21T13:47:49;98949.00;;;19.80
21210;BMP180;10762;42.206;25.326;2023-11-21T13:50:20;98958.00;;;19.80
21210;BMP180;10762;42.206;25.326;2023-11-21T13:52:50;98961.00;;;19.80
21210;BMP180;10762;42.206;25.326;2023-11-21T13:55:19;98962.00;;;19.80
21210;BMP180;10762;42.206;25.326;2023-11-21T13:57:45;98965.00;;;19.80
21210;BMP180;10762;42.206;25.326;2023-11-21T14:00:15;98965.00;;;19.80
21210;BMP180;10762;42.206;25.326;2023-11-21T14:03:00;98962.00;;;19.80
21210;BMP180;10762;42.206;25.326;2023-11-21T14:05:27;98963.00;;;19.80
21210;BMP180;10762;42.206;25.326;2023-11-21T14:07:55;98968.00;;;19.80
21210;BMP180;10762;42.206;25.326;2023-11-21T14:10:22;98959.00;;;19.80
21210;BMP180;10762;42.206;25.326;2023-11-21T14:12:50;98961.00;;;19.80
21210;BMP180;10762;42.206;25.326;2023-11-21T14:15:16;98956.00;;;19.70